createdAt,value
2019-05-07T00:02:02.740Z,100889.55
2019-05-07T00:04:34.672Z,100891.02
2019-05-07T00:07:06.497Z,100895.20
2019-05-07T00:09:38.522Z,100893.52
2019-05-07T00:12:12.586Z,100893.09
2019-05-07T00:14:58.244Z,100888.62
2019-05-07T00:17:19.031Z,100888.05
2019-05-07T00:19:52.608Z,100884.94
2019-05-07T00:22:25.598Z,100883.45
2019-05-07T00:24:57.880Z,100886.05
2019-05-07T00:27:31.920Z,100883.10
2019-05-07T00:30:03.248Z,100877.69
2019-05-07T00:32:34.588Z,100882.27
2019-05-07T00:35:08.273Z,100883.08
2019-05-07T00:37:45.232Z,100887.26
2019-05-07T00:40:32.799Z,100886.95
2019-05-07T00:43:16.773Z,100885.59
2019-05-07T00:46:02.289Z,100885.59
2019-05-07T00:48:34.156Z,100882.81
2019-05-07T00:51:28.244Z,100883.00
2019-05-07T00:54:02.706Z,100878.16
2019-05-07T00:56:33.829Z,100876.52
2019-05-07T00:59:06.279Z,100875.15
2019-05-07T01:01:38.405Z,100877.35
2019-05-07T01:04:12.016Z,100879.59
2019-05-07T01:06:43.633Z,100873.52
2019-05-07T01:09:15.730Z,100880.73
2019-05-07T01:11:47.672Z,100877.72
2019-05-07T01:14:19.807Z,100873.84
2019-05-07T01:16:52.894Z,100868.72
2019-05-07T01:19:24.551Z,100867.99
2019-05-07T01:21:56.602Z,100868.64
2019-05-07T01:24:28.590Z,100877.65
2019-05-07T01:27:02.143Z,100868.69
2019-05-07T01:29:34.162Z,100878.23
2019-05-07T01:32:12.965Z,100874.28
2019-05-07T01:34:55.683Z,100878.00
2019-05-07T01:37:26.913Z,100874.52
2019-05-07T01:39:58.463Z,100876.22
2019-05-07T01:42:32.557Z,100878.77
2019-05-07T01:45:03.929Z,100881.13
2019-05-07T01:47:35.274Z,100880.74
2019-05-07T01:50:08.831Z,100889.70
2019-05-07T01:52:42.722Z,100883.45
2019-05-07T01:55:14.430Z,100891.40
2019-05-07T01:57:46.021Z,100889.40
2019-05-07T02:00:17.444Z,100891.99
2019-05-07T02:02:57.135Z,100897.08
2019-05-07T02:05:47.805Z,100888.11
2019-05-07T02:08:38.703Z,100883.78
2019-05-07T02:11:13.150Z,100887.55
2019-05-07T02:13:45.887Z,100887.37
2019-05-07T02:16:17.731Z,100890.38
2019-05-07T02:18:49.554Z,100889.03
2019-05-07T02:21:22.049Z,100901.48
2019-05-07T02:23:54.344Z,100890.34
2019-05-07T02:26:25.875Z,100895.84
2019-05-07T02:28:57.467Z,100895.84
2019-05-07T02:31:29.359Z,100896.30
2019-05-07T02:34:02.745Z,100900.03
2019-05-07T02:36:35.641Z,100897.70
2019-05-07T02:39:16.030Z,100902.59
2019-05-07T02:41:47.738Z,100894.83
2019-05-07T02:44:19.281Z,100899.98
2019-05-07T02:47:04.041Z,100897.25
2019-05-07T02:49:46.395Z,100894.92
2019-05-07T02:52:24.884Z,100897.33
2019-05-07T02:55:07.334Z,100900.70
2019-05-07T02:57:39.203Z,100903.88
2019-05-07T03:00:14.079Z,100897.30
2019-05-07T03:02:43.942Z,100910.77
2019-05-07T03:05:15.551Z,100905.63
2019-05-07T03:07:47.127Z,100909.10
2019-05-07T03:10:19.229Z,100901.52
2019-05-07T03:12:53.626Z,100906.02
2019-05-07T03:15:28.271Z,100904.38
2019-05-07T03:18:03.419Z,100907.54
2019-05-07T03:20:44.101Z,100906.77
2019-05-07T03:23:18.581Z,100896.83
2019-05-07T03:26:08.690Z,100899.88
2019-05-07T03:28:53.457Z,100905.41
2019-05-07T03:31:46.604Z,100907.69
2019-05-07T03:34:38.494Z,100915.69
2019-05-07T03:37:13.570Z,100914.56
2019-05-07T03:39:45.239Z,100909.28
2019-05-07T03:42:17.227Z,100920.63
2019-05-07T03:44:54.001Z,100916.94
2019-05-07T03:47:33.316Z,100922.76
2019-05-07T03:50:06.470Z,100922.20
2019-05-07T03:52:37.852Z,100928.14
2019-05-07T03:55:10.290Z,100925.97
2019-05-07T03:57:43.666Z,100934.07
2019-05-07T04:00:15.772Z,100930.45
2019-05-07T04:02:47.554Z,100932.56
2019-05-07T04:05:22.940Z,100927.64
2019-05-07T04:07:54.110Z,100931.13
2019-05-07T04:10:25.777Z,100932.27
2019-05-07T04:12:57.143Z,100938.00
2019-05-07T04:15:28.970Z,100938.70
2019-05-07T04:18:03.495Z,100937.90
2019-05-07T04:20:34.260Z,100941.19
2019-05-07T04:23:06.189Z,100943.11
2019-05-07T04:25:57.107Z,100939.34
2019-05-07T04:29:05.826Z,100939.81
2019-05-07T04:31:43.057Z,100943.16
2019-05-07T04:34:19.374Z,100947.56
2019-05-07T04:36:53.418Z,100953.16
2019-05-07T04:39:24.462Z,100950.33
2019-05-07T04:41:56.077Z,100951.41
2019-05-07T04:44:28.270Z,100951.55
2019-05-07T04:47:00.439Z,100947.07
2019-05-07T04:49:33.236Z,100947.07
2019-05-07T04:52:12.473Z,100949.78
2019-05-07T04:54:43.657Z,100946.42
2019-05-07T04:57:28.335Z,100950.78
2019-05-07T05:00:03.330Z,100948.67
2019-05-07T05:02:43.536Z,100950.38
2019-05-07T05:05:15.576Z,100948.11
2019-05-07T05:07:46.882Z,100953.77
2019-05-07T05:10:18.622Z,100953.58
2019-05-07T05:12:50.248Z,100952.66
2019-05-07T05:15:22.334Z,100956.80
2019-05-07T05:17:54.306Z,100960.36
2019-05-07T05:20:35.040Z,100957.81
2019-05-07T05:23:24.280Z,100959.77
2019-05-07T05:25:55.967Z,100972.08
2019-05-07T05:28:27.820Z,100967.21
2019-05-07T05:31:03.302Z,100975.80
2019-05-07T05:33:34.929Z,100971.67
2019-05-07T05:36:06.518Z,100971.67
2019-05-07T05:38:38.141Z,100971.69
2019-05-07T05:41:12.300Z,100973.22
2019-05-07T05:44:05.086Z,100972.77
2019-05-07T05:46:37.160Z,100979.17
2019-05-07T05:49:08.731Z,100965.64
2019-05-07T05:52:02.147Z,100980.98
2019-05-07T05:54:42.461Z,100975.44
2019-05-07T05:57:35.490Z,100974.16
2019-05-07T06:00:38.583Z,100980.30
2019-05-07T06:03:32.345Z,100973.49
2019-05-07T06:06:14.763Z,100980.13
2019-05-07T06:08:52.630Z,100975.65
2019-05-07T06:11:55.866Z,100976.84
2019-05-07T06:14:42.500Z,100981.07
2019-05-07T06:17:36.905Z,100987.88
2019-05-07T06:20:33.903Z,100986.52
2019-05-07T06:23:23.201Z,100988.27
2019-05-07T06:25:54.871Z,100986.55
2019-05-07T06:28:26.619Z,100990.92
2019-05-07T06:30:58.342Z,100989.60
2019-05-07T06:33:32.413Z,100991.67
2019-05-07T06:36:04.568Z,100991.72
2019-05-07T06:38:42.940Z,100991.51
2019-05-07T06:41:25.124Z,100996.86
2019-05-07T06:44:02.063Z,100996.22
2019-05-07T06:46:34.265Z,100985.09
2019-05-07T06:49:08.510Z,100989.41
2019-05-07T06:51:41.976Z,100996.50
2019-05-07T06:54:13.949Z,100997.52
2019-05-07T06:56:45.604Z,101003.03
2019-05-07T06:59:26.163Z,100997.98
2019-05-07T07:02:16.559Z,100998.35
2019-05-07T07:04:55.286Z,101006.94
2019-05-07T07:07:42.282Z,101003.23
2019-05-07T07:10:25.035Z,101001.62
2019-05-07T07:12:56.669Z,101003.06
2019-05-07T07:15:28.214Z,101001.02
2019-05-07T07:17:59.980Z,100993.11
2019-05-07T07:20:32.666Z,100994.68
2019-05-07T07:23:04.677Z,100989.90
2019-05-07T07:25:36.499Z,100991.86
2019-05-07T07:28:08.959Z,100994.61
2019-05-07T07:30:54.328Z,100986.96
2019-05-07T07:33:28.710Z,100987.45
2019-05-07T07:36:02.477Z,100981.03
2019-05-07T07:38:35.474Z,100980.83
2019-05-07T07:41:22.321Z,100976.61
2019-05-07T07:43:54.215Z,100976.56
2019-05-07T07:46:25.881Z,100975.23
2019-05-07T07:49:07.859Z,100977.41
2019-05-07T07:51:40.586Z,100972.13
2019-05-07T07:54:05.025Z,100971.53
2019-05-07T07:56:52.969Z,100969.37
2019-05-07T07:59:52.948Z,100964.66
2019-05-07T08:02:32.231Z,100968.74
2019-05-07T08:05:03.093Z,100973.63
2019-05-07T08:07:34.833Z,100973.27
2019-05-07T08:10:06.673Z,100970.09
2019-05-07T08:12:42.066Z,100976.96
2019-05-07T08:15:20.390Z,100966.55
2019-05-07T08:17:46.552Z,100967.44
2019-05-07T08:20:19.286Z,100963.36
2019-05-07T08:22:52.623Z,100965.44
2019-05-07T08:25:42.694Z,100969.36
2019-05-07T08:28:14.474Z,100962.12
2019-05-07T08:30:54.230Z,100963.21
2019-05-07T08:33:32.311Z,100961.39
2019-05-07T08:36:17.254Z,100961.12
2019-05-07T08:38:53.243Z,100960.54
2019-05-07T08:41:26.049Z,100944.83
2019-05-07T08:44:15.095Z,100953.82
2019-05-07T08:47:03.854Z,100958.34
2019-05-07T08:49:39.854Z,100965.00
2019-05-07T08:52:12.020Z,100955.17
2019-05-07T08:54:44.330Z,100954.38
2019-05-07T08:57:16.123Z,100955.52
2019-05-07T09:00:00.120Z,100955.52
2019-05-07T09:02:22.272Z,100959.66
2019-05-07T09:04:54.023Z,100952.71
2019-05-07T09:07:25.986Z,100941.84
2019-05-07T09:09:58.220Z,100942.34
2019-05-07T09:12:31.699Z,100941.45
2019-05-07T09:15:05.260Z,100937.58
2019-05-07T09:17:36.596Z,100944.92
2019-05-07T09:20:09.303Z,100957.23
2019-05-07T09:22:42.743Z,100954.73
2019-05-07T09:25:14.907Z,100940.48
2019-05-07T09:27:48.203Z,100939.63
2019-05-07T09:30:56.787Z,100936.62
2019-05-07T09:33:42.317Z,100932.97
2019-05-07T09:36:22.848Z,100935.47
2019-05-07T09:38:59.341Z,100941.89
2019-05-07T09:41:32.587Z,100943.94
2019-05-07T09:44:03.311Z,100946.94
2019-05-07T09:46:34.905Z,100939.70
2019-05-07T09:49:07.142Z,100940.28
2019-05-07T09:51:38.660Z,100932.11
2019-05-07T09:54:12.717Z,100929.00
2019-05-07T09:56:44.432Z,100936.55
2019-05-07T09:59:16.316Z,100934.37
2019-05-07T10:01:47.948Z,100928.55
2019-05-07T10:04:19.313Z,100933.36
2019-05-07T10:06:51.898Z,100930.86
2019-05-07T10:09:23.659Z,100931.11
2019-05-07T10:12:06.752Z,100919.14
2019-05-07T10:14:38.432Z,100924.55
2019-05-07T10:17:33.451Z,100912.77
2019-05-07T10:20:18.232Z,100917.46
2019-05-07T10:22:42.883Z,100906.87
2019-05-07T10:25:14.234Z,100906.87
2019-05-07T10:27:47.906Z,100908.19
2019-05-07T10:30:21.714Z,100910.02
2019-05-07T10:32:52.851Z,100905.52
2019-05-07T10:35:23.992Z,100906.73
2019-05-07T10:37:56.681Z,100895.91
2019-05-07T10:40:28.460Z,100899.45
2019-05-07T10:43:00.324Z,100891.34
2019-05-07T10:45:51.967Z,100892.20
2019-05-07T10:48:46.419Z,100891.88
2019-05-07T10:51:18.293Z,100896.41
2019-05-07T10:53:51.680Z,100900.84
2019-05-07T10:56:22.607Z,100896.76
2019-05-07T10:58:54.094Z,100902.73
2019-05-07T11:01:38.117Z,100891.97
2019-05-07T11:04:09.897Z,100898.22
2019-05-07T11:06:41.904Z,100898.50
2019-05-07T11:09:13.896Z,100887.73
2019-05-07T11:11:46.032Z,100875.90
2019-05-07T11:14:17.725Z,100880.13
2019-05-07T11:17:11.955Z,100877.16
2019-05-07T11:19:43.322Z,100874.31
2019-05-07T11:22:15.839Z,100874.92
2019-05-07T11:24:47.088Z,100878.88
2019-05-07T11:27:18.902Z,100877.74
2019-05-07T11:29:50.834Z,100865.19
2019-05-07T11:32:22.350Z,100864.13
2019-05-07T11:34:56.378Z,100864.00
2019-05-07T11:37:27.992Z,100840.27
2019-05-07T11:39:59.959Z,100842.14
2019-05-07T11:43:06.100Z,100843.86
2019-05-07T11:46:01.982Z,100835.30
2019-05-07T11:48:36.402Z,100838.55
2019-05-07T11:51:23.323Z,100842.78
2019-05-07T11:54:14.756Z,100840.81
2019-05-07T11:56:46.246Z,100846.19
2019-05-07T11:59:17.797Z,100849.02
2019-05-07T12:01:53.515Z,100823.55
2019-05-07T12:04:27.859Z,100822.11
2019-05-07T12:06:58.956Z,100829.28
2019-05-07T12:09:30.741Z,100826.47
2019-05-07T12:12:02.665Z,100817.67
2019-05-07T12:14:35.102Z,100816.67
2019-05-07T12:17:06.357Z,100811.50
2019-05-07T12:19:37.620Z,100817.52
2019-05-07T12:22:08.933Z,100823.64
2019-05-07T12:24:41.879Z,100822.97
2019-05-07T12:27:13.375Z,100811.73
2019-05-07T12:29:47.692Z,100816.61
2019-05-07T12:32:28.725Z,100822.39
2019-05-07T12:35:04.725Z,100806.52
2019-05-07T12:37:35.969Z,100797.57
2019-05-07T12:40:07.812Z,100801.12
2019-05-07T12:42:39.647Z,100795.51
2019-05-07T12:45:12.606Z,100796.81
2019-05-07T12:47:44.837Z,100794.19
2019-05-07T12:50:16.800Z,100791.58
2019-05-07T12:52:56.546Z,100792.88
2019-05-07T12:55:39.264Z,100792.88
2019-05-07T12:58:12.616Z,100773.97
2019-05-07T13:00:59.607Z,100774.59
2019-05-07T13:03:54.367Z,100784.17
2019-05-07T13:06:26.855Z,100782.89
2019-05-07T13:09:01.156Z,100776.67
2019-05-07T13:11:34.691Z,100771.10
2019-05-07T13:14:06.624Z,100772.87
2019-05-07T13:16:39.521Z,100766.40
2019-05-07T13:19:13.096Z,100765.73
2019-05-07T13:21:49.617Z,100766.58
2019-05-07T13:24:18.268Z,100760.72
2019-05-07T13:26:51.800Z,100761.28
2019-05-07T13:29:23.508Z,100757.62
2019-05-07T13:31:55.582Z,100744.13
2019-05-07T13:34:27.227Z,100752.13
2019-05-07T13:37:03.130Z,100750.95
2019-05-07T13:39:57.167Z,100750.91
2019-05-07T13:42:43.924Z,100749.61
2019-05-07T13:45:37.581Z,100740.28
2019-05-07T13:48:15.571Z,100745.11
2019-05-07T13:50:47.682Z,100736.97
2019-05-07T13:53:20.038Z,100734.09
2019-05-07T13:55:51.438Z,100735.72
2019-05-07T13:58:23.135Z,100724.56
2019-05-07T14:01:04.933Z,100717.71
2019-05-07T14:03:36.126Z,100725.37
2019-05-07T14:06:07.439Z,100714.69
2019-05-07T14:08:42.366Z,100711.59
2019-05-07T14:11:13.756Z,100712.64
2019-05-07T14:13:46.140Z,100710.77
2019-05-07T14:16:18.007Z,100703.46
2019-05-07T14:18:49.620Z,100713.61
2019-05-07T14:21:21.956Z,100703.41
2019-05-07T14:23:53.774Z,100705.41
2019-05-07T14:26:25.274Z,100700.89
2019-05-07T14:28:56.812Z,100695.97
2019-05-07T14:31:28.630Z,100689.50
2019-05-07T14:34:13.393Z,100691.34
2019-05-07T14:36:57.842Z,100696.47
2019-05-07T14:39:36.185Z,100687.68
2019-05-07T14:42:09.835Z,100687.89
2019-05-07T14:44:52.810Z,100691.94
2019-05-07T14:47:24.493Z,100686.75
2019-05-07T14:49:55.892Z,100670.09
2019-05-07T14:52:33.066Z,100675.00
2019-05-07T14:55:05.030Z,100684.02
2019-05-07T14:57:36.074Z,100674.63
2019-05-07T15:00:07.760Z,100672.20
2019-05-07T15:02:41.929Z,100673.14
2019-05-07T15:05:12.964Z,100676.72
2019-05-07T15:08:07.041Z,100670.61
2019-05-07T15:10:27.242Z,100668.13
2019-05-07T15:12:59.121Z,100668.11
2019-05-07T15:15:31.175Z,100667.34
2019-05-07T15:18:08.647Z,100661.33
2019-05-07T15:20:41.954Z,100659.56
2019-05-07T15:23:18.647Z,100662.39
2019-05-07T15:25:51.715Z,100656.73
2019-05-07T15:28:23.921Z,100659.80
2019-05-07T15:31:02.942Z,100661.25
2019-05-07T15:33:34.681Z,100662.88
2019-05-07T15:36:06.616Z,100654.58
2019-05-07T15:38:39.936Z,100653.00
2019-05-07T15:41:11.627Z,100648.58
2019-05-07T15:43:45.847Z,100651.86
2019-05-07T15:46:16.326Z,100648.69
2019-05-07T15:48:47.796Z,100647.70
2019-05-07T15:51:19.373Z,100647.03
2019-05-07T15:53:53.646Z,100648.27
2019-05-07T15:56:25.613Z,100640.39
2019-05-07T15:58:57.467Z,100642.20
2019-05-07T16:01:29.359Z,100631.16
2019-05-07T16:04:02.775Z,100626.26
2019-05-07T16:06:36.225Z,100635.41
2019-05-07T16:09:08.904Z,100620.31
2019-05-07T16:11:43.046Z,100627.31
2019-05-07T16:14:26.860Z,100628.17
2019-05-07T16:17:13.666Z,100621.36
2019-05-07T16:19:46.236Z,100627.53
2019-05-07T16:22:24.779Z,100621.81
2019-05-07T16:24:56.057Z,100622.23
2019-05-07T16:27:27.719Z,100622.20
2019-05-07T16:29:59.621Z,100625.41
2019-05-07T16:32:32.856Z,100621.48
2019-05-07T16:35:05.681Z,100618.36
2019-05-07T16:37:37.772Z,100615.48
2019-05-07T16:40:09.527Z,100617.44
2019-05-07T16:42:42.901Z,100613.36
2019-05-07T16:45:15.282Z,100612.47
2019-05-07T16:47:47.142Z,100604.30
2019-05-07T16:50:18.910Z,100607.83
2019-05-07T16:52:52.488Z,100606.86
2019-05-07T16:55:28.562Z,100599.57
2019-05-07T16:58:23.484Z,100601.85
2019-05-07T17:01:00.172Z,100600.00
2019-05-07T17:03:39.857Z,100602.15
2019-05-07T17:06:12.522Z,100601.49
2019-05-07T17:08:54.275Z,100604.45
2019-05-07T17:11:25.913Z,100603.80
2019-05-07T17:13:57.556Z,100606.69
2019-05-07T17:16:31.580Z,100604.84
2019-05-07T17:19:03.031Z,100604.83
2019-05-07T17:21:35.278Z,100605.88
2019-05-07T17:24:06.849Z,100613.96
2019-05-07T17:26:38.966Z,100602.86
2019-05-07T17:29:12.037Z,100604.33
2019-05-07T17:31:44.164Z,100610.55
2019-05-07T17:34:16.180Z,100613.42
2019-05-07T17:36:47.977Z,100607.06
2019-05-07T17:39:20.066Z,100610.46
2019-05-07T17:41:52.546Z,100610.96
2019-05-07T17:44:24.293Z,100611.61
2019-05-07T17:47:01.923Z,100611.76
2019-05-07T17:49:36.306Z,100610.11
2019-05-07T17:52:09.970Z,100614.82
2019-05-07T17:54:42.370Z,100617.70
2019-05-07T17:57:15.920Z,100621.64
2019-05-07T17:59:47.879Z,100615.66
2019-05-07T18:02:29.589Z,100620.58
2019-05-07T18:05:02.821Z,100614.14
2019-05-07T18:07:36.824Z,100619.65
2019-05-07T18:10:09.927Z,100624.19
2019-05-07T18:12:43.532Z,100620.47
2019-05-07T18:15:15.887Z,100615.00
2019-05-07T18:17:53.053Z,100615.38
2019-05-07T18:20:24.435Z,100616.87
2019-05-07T18:22:56.378Z,100613.16
2019-05-07T18:25:28.391Z,100612.71
2019-05-07T18:28:01.866Z,100615.44
2019-05-07T18:30:33.749Z,100614.58
2019-05-07T18:33:29.686Z,100612.10
2019-05-07T18:36:02.809Z,100619.42
2019-05-07T18:38:34.835Z,100607.84
2019-05-07T18:41:06.858Z,100608.10
2019-05-07T18:43:39.034Z,100609.91
2019-05-07T18:46:12.754Z,100604.61
2019-05-07T18:48:45.004Z,100608.46
2019-05-07T18:51:16.751Z,100603.52
2019-05-07T18:53:49.136Z,100603.52
2019-05-07T18:56:22.146Z,100602.57
2019-05-07T18:58:54.208Z,100607.20
2019-05-07T19:01:27.386Z,100604.23
2019-05-07T19:03:59.523Z,100614.83
2019-05-07T19:06:32.597Z,100612.53
2019-05-07T19:09:05.792Z,100611.46
2019-05-07T19:11:39.679Z,100611.17
2019-05-07T19:14:13.247Z,100611.31
2019-05-07T19:16:45.785Z,100616.50
2019-05-07T19:19:17.568Z,100620.94
2019-05-07T19:21:49.614Z,100620.06
2019-05-07T19:24:25.835Z,100611.76
2019-05-07T19:26:55.730Z,100609.89
2019-05-07T19:29:27.600Z,100613.19
2019-05-07T19:31:59.832Z,100614.62
2019-05-07T19:34:32.464Z,100611.31
2019-05-07T19:37:04.041Z,100613.63
2019-05-07T19:39:36.099Z,100607.91
2019-05-07T19:42:08.177Z,100613.78
2019-05-07T19:44:42.264Z,100613.75
2019-05-07T19:47:14.240Z,100610.47
2019-05-07T19:49:46.312Z,100610.39
2019-05-07T19:52:18.568Z,100611.77
2019-05-07T19:55:00.483Z,100601.13
2019-05-07T19:57:28.146Z,100599.96
2019-05-07T20:00:00.100Z,100598.78
2019-05-07T20:02:37.288Z,100594.86
2019-05-07T20:05:08.619Z,100593.64
2019-05-07T20:07:42.335Z,100595.73
2019-05-07T20:10:15.770Z,100591.70
2019-05-07T20:12:47.454Z,100591.03
2019-05-07T20:15:19.255Z,100592.87
2019-05-07T20:17:52.632Z,100595.27
2019-05-07T20:20:24.482Z,100589.63
2019-05-07T20:22:59.595Z,100587.29
2019-05-07T20:25:33.387Z,100587.70
2019-05-07T20:28:04.492Z,100590.86
2019-05-07T20:30:36.118Z,100581.20
2019-05-07T20:33:07.877Z,100588.09
2019-05-07T20:35:41.301Z,100586.84
2019-05-07T20:38:13.139Z,100584.72
2019-05-07T20:40:45.111Z,100584.08
2019-05-07T20:43:17.272Z,100584.72
2019-05-07T20:45:49.417Z,100584.44
2019-05-07T20:48:22.663Z,100578.80
2019-05-07T20:50:54.478Z,100576.88
2019-05-07T20:53:43.949Z,100575.42
2019-05-07T20:56:16.323Z,100571.30
2019-05-07T20:58:48.521Z,100571.31
2019-05-07T21:01:22.016Z,100572.78
2019-05-07T21:03:54.473Z,100571.03
2019-05-07T21:06:26.529Z,100563.70
2019-05-07T21:08:58.512Z,100565.43
2019-05-07T21:11:32.369Z,100561.14
2019-05-07T21:14:03.561Z,100558.05
2019-05-07T21:16:35.324Z,100560.19
2019-05-07T21:19:06.682Z,100562.47
2019-05-07T21:21:38.421Z,100554.64
2019-05-07T21:24:09.995Z,100555.44
2019-05-07T21:26:42.336Z,100548.36
2019-05-07T21:29:15.039Z,100552.16
2019-05-07T21:31:47.368Z,100548.27
2019-05-07T21:34:19.886Z,100544.56
2019-05-07T21:36:52.422Z,100544.87
2019-05-07T21:39:24.409Z,100538.04
2019-05-07T21:41:56.241Z,100546.27
2019-05-07T21:44:28.232Z,100545.09
2019-05-07T21:47:01.719Z,100543.24
2019-05-07T21:49:34.712Z,100542.11
2019-05-07T21:52:06.141Z,100536.74
2019-05-07T21:54:59.285Z,100533.53
2019-05-07T21:57:55.740Z,100526.80
2019-05-07T22:00:45.148Z,100526.20
2019-05-07T22:03:18.459Z,100526.45
2019-05-07T22:05:51.719Z,100519.09
2019-05-07T22:08:23.859Z,100522.41
2019-05-07T22:10:55.541Z,100520.05
2019-05-07T22:13:28.325Z,100509.73
2019-05-07T22:16:02.528Z,100514.34
2019-05-07T22:18:34.679Z,100513.89
2019-05-07T22:21:06.352Z,100507.41
2019-05-07T22:23:38.231Z,100502.70
2019-05-07T22:26:20.340Z,100507.47
2019-05-07T22:28:43.277Z,100500.35
2019-05-07T22:31:28.238Z,100500.01
2019-05-07T22:34:18.758Z,100496.41
2019-05-07T22:36:52.091Z,100497.94
2019-05-07T22:39:37.695Z,100494.20
2019-05-07T22:42:11.863Z,100485.02
2019-05-07T22:44:43.971Z,100479.34
2019-05-07T22:47:22.723Z,100479.34
2019-05-07T22:49:55.673Z,100474.97
2019-05-07T22:52:27.842Z,100473.19
2019-05-07T22:54:59.705Z,100466.55
2019-05-07T22:57:41.879Z,100465.38
2019-05-07T23:00:22.633Z,100463.91
2019-05-07T23:02:54.042Z,100458.20
2019-05-07T23:05:25.986Z,100452.39
2019-05-07T23:07:57.955Z,100450.81
2019-05-07T23:10:29.825Z,100453.94
2019-05-07T23:13:02.278Z,100448.13
2019-05-07T23:15:34.064Z,100452.34
2019-05-07T23:18:05.789Z,100450.97
2019-05-07T23:20:37.845Z,100447.56
2019-05-07T23:23:09.683Z,100443.99
2019-05-07T23:25:43.115Z,100441.86
2019-05-07T23:28:15.186Z,100437.01
2019-05-07T23:30:47.039Z,100431.78
2019-05-07T23:33:19.110Z,100427.95
2019-05-07T23:35:52.793Z,100426.58
2019-05-07T23:38:24.687Z,100422.54
2019-05-07T23:41:04.310Z,100417.45
2019-05-07T23:43:36.882Z,100415.11
2019-05-07T23:46:08.857Z,100412.49
2019-05-07T23:48:42.698Z,100407.47
2019-05-07T23:51:14.434Z,100407.47
2019-05-07T23:53:46.565Z,100402.48
2019-05-07T23:56:18.016Z,100400.22
2019-05-07T23:58:49.931Z,100400.48
